sensor_id;sensor_type;location;lat;lon;timestamp;pressure;altitude;pressure_sealevel;temperature;humidity
54262;BME280;40174;52.364;6.452;2022-10-03T00:01:15;102210.44;;;9.73;100.00
54262;BME280;40174;52.364;6.452;2022-10-03T00:03:54;102222.91;;;9.71;100.00
54262;BME280;40174;52.364;6.452;2022-10-03T00:06:28;102220.31;;;9.69;100.00
54262;BME280;40174;52.364;6.452;2022-10-03T00:09:10;102219.56;;;9.67;100.00
54262;BME280;40174;52.364;6.452;2022-10-03T00:11:51;102220.72;;;9.62;100.00
54262;BME280;40174;52.364;6.452;2022-10-03T00:14:29;102226.19;;;9.58;100.00
54262;BME280;40174;52.364;6.452;2022-10-03T00:17:06;102228.75;;;9.60;100.00
54262;BME280;40174;52.364;6.452;2022-10-03T00:19:39;102230.53;;;9.60;100.00
54262;BME280;40174;52.364;6.452;2022-10-03T00:22:19;102228.81;;;9.58;100.00
54262;BME280;40174;52.364;6.452;2022-10-03T00:25:01;102234.09;;;9.58;100.00
54262;BME280;40174;52.364;6.452;2022-10-03T00:27:36;102227.91;;;9.60;100.00
54262;BME280;40174;52.364;6.452;2022-10-03T00:30:13;102246.38;;;9.60;100.00
54262;BME280;40174;52.364;6.452;2022-10-03T00:33:01;102249.03;;;9.60;100.00
54262;BME280;40174;52.364;6.452;2022-10-03T00:35:39;102254.38;;;9.58;100.00
54262;BME280;40174;52.364;6.452;2022-10-03T00:38:20;102255.47;;;9.54;100.00
54262;BME280;40174;52.364;6.452;2022-10-03T00:41:12;102248.41;;;9.54;100.00
54262;BME280;40174;52.364;6.452;2022-10-03T00:43:59;102261.59;;;9.54;100.00
54262;BME280;40174;52.364;6.452;2022-10-03T00:47:08;102268.72;;;9.52;100.00
54262;BME280;40174;52.364;6.452;2022-10-03T00:50:16;102264.41;;;9.51;100.00
54262;BME280;40174;52.364;6.452;2022-10-03T00:53:08;102271.53;;;9.49;100.00
54262;BME280;40174;52.364;6.452;2022-10-03T00:55:51;102271.63;;;9.48;100.00
54262;BME280;40174;52.364;6.452;2022-10-03T00:58:44;102270.84;;;9.46;100.00
54262;BME280;40174;52.364;6.452;2022-10-03T01:01:22;102279.78;;;9.43;100.00
54262;BME280;40174;52.364;6.452;2022-10-03T01:04:01;102275.28;;;9.45;100.00
54262;BME280;40174;52.364;6.452;2022-10-03T01:06:36;102277.06;;;9.45;100.00
54262;BME280;40174;52.364;6.452;2022-10-03T01:12:08;102280.72;;;9.42;100.00
54262;BME280;40174;52.364;6.452;2022-10-03T01:14:51;102281.63;;;9.41;100.00
54262;BME280;40174;52.364;6.452;2022-10-03T01:17:27;102277.38;;;9.39;100.00
54262;BME280;40174;52.364;6.452;2022-10-03T01:20:16;102288.78;;;9.39;100.00
54262;BME280;40174;52.364;6.452;2022-10-03T01:25:50;102285.59;;;9.32;100.00
54262;BME280;40174;52.364;6.452;2022-10-03T01:28:42;102282.19;;;9.30;100.00
54262;BME280;40174;52.364;6.452;2022-10-03T01:31:43;102288.34;;;9.31;100.00
54262;BME280;40174;52.364;6.452;2022-10-03T01:34:20;102294.53;;;9.30;100.00
54262;BME280;40174;52.364;6.452;2022-10-03T01:36:57;102299.75;;;9.31;100.00
54262;BME280;40174;52.364;6.452;2022-10-03T01:39:33;102303.22;;;9.32;100.00
54262;BME280;40174;52.364;6.452;2022-10-03T01:42:06;102298.03;;;9.30;100.00
54262;BME280;40174;52.364;6.452;2022-10-03T01:44:44;102300.75;;;9.29;100.00
54262;BME280;40174;52.364;6.452;2022-10-03T01:47:23;102303.41;;;9.29;100.00
54262;BME280;40174;52.364;6.452;2022-10-03T01:49:56;102314.03;;;9.27;100.00
54262;BME280;40174;52.364;6.452;2022-10-03T01:52:35;102318.53;;;9.25;100.00
54262;BME280;40174;52.364;6.452;2022-10-03T01:55:08;102316.91;;;9.23;100.00
54262;BME280;40174;52.364;6.452;2022-10-03T01:57:43;102319.53;;;9.23;100.00
54262;BME280;40174;52.364;6.452;2022-10-03T02:00:13;102322.19;;;9.23;100.00
54262;BME280;40174;52.364;6.452;2022-10-03T02:02:44;102312.47;;;9.23;100.00
54262;BME280;40174;52.364;6.452;2022-10-03T02:05:18;102314.34;;;9.21;100.00
54262;BME280;40174;52.364;6.452;2022-10-03T02:07:51;102310.84;;;9.21;100.00
54262;BME280;40174;52.364;6.452;2022-10-03T02:10:31;102315.28;;;9.20;100.00
54262;BME280;40174;52.364;6.452;2022-10-03T02:13:08;102314.44;;;9.20;100.00
54262;BME280;40174;52.364;6.452;2022-10-03T02:15:54;102316.28;;;9.18;100.00
54262;BME280;40174;52.364;6.452;2022-10-03T02:18:27;102326.91;;;9.16;100.00
54262;BME280;40174;52.364;6.452;2022-10-03T02:21:06;102319.16;;;9.13;100.00
54262;BME280;40174;52.364;6.452;2022-10-03T02:23:39;102324.44;;;9.13;100.00
54262;BME280;40174;52.364;6.452;2022-10-03T02:26:47;102321.88;;;9.11;100.00
54262;BME280;40174;52.364;6.452;2022-10-03T02:29:49;102319.28;;;9.10;100.00
54262;BME280;40174;52.364;6.452;2022-10-03T02:32:49;102317.66;;;9.07;100.00
54262;BME280;40174;52.364;6.452;2022-10-03T02:35:32;102322.25;;;9.04;100.00
54262;BME280;40174;52.364;6.452;2022-10-03T02:38:14;102323.91;;;9.06;100.00
54262;BME280;40174;52.364;6.452;2022-10-03T02:41:06;102315.97;;;9.06;100.00
54262;BME280;40174;52.364;6.452;2022-10-03T02:50:11;102315.44;;;9.00;100.00
54262;BME280;40174;52.364;6.452;2022-10-03T02:53:10;102320.00;;;8.96;100.00
54262;BME280;40174;52.364;6.452;2022-10-03T02:56:14;102327.06;;;8.95;100.00
54262;BME280;40174;52.364;6.452;2022-10-03T02:59:13;102320.00;;;8.96;100.00
54262;BME280;40174;52.364;6.452;2022-10-03T03:05:13;102323.56;;;8.95;100.00
54262;BME280;40174;52.364;6.452;2022-10-03T03:10:54;102320.22;;;8.91;100.00
54262;BME280;40174;52.364;6.452;2022-10-03T03:13:38;102322.78;;;8.93;100.00
54262;BME280;40174;52.364;6.452;2022-10-03T03:16:37;102323.88;;;8.89;100.00
54262;BME280;40174;52.364;6.452;2022-10-03T03:19:24;102330.84;;;8.90;100.00
54262;BME280;40174;52.364;6.452;2022-10-03T03:22:00;102322.78;;;8.93;100.00
54262;BME280;40174;52.364;6.452;2022-10-03T03:24:47;102333.41;;;8.91;100.00
54262;BME280;40174;52.364;6.452;2022-10-03T03:27:40;102329.94;;;8.91;100.00
54262;BME280;40174;52.364;6.452;2022-10-03T03:30:13;102330.78;;;8.91;100.00
54262;BME280;40174;52.364;6.452;2022-10-03T03:32:54;102330.94;;;8.88;100.00
54262;BME280;40174;52.364;6.452;2022-10-03T03:35:34;102333.63;;;8.87;100.00
54262;BME280;40174;52.364;6.452;2022-10-03T03:38:16;102328.53;;;8.84;100.00
54262;BME280;40174;52.364;6.452;2022-10-03T03:40:59;102331.94;;;8.86;100.00
54262;BME280;40174;52.364;6.452;2022-10-03T03:43:38;102327.59;;;8.85;100.00
54262;BME280;40174;52.364;6.452;2022-10-03T03:46:19;102337.22;;;8.86;100.00
54262;BME280;40174;52.364;6.452;2022-10-03T03:49:08;102340.94;;;8.82;100.00
54262;BME280;40174;52.364;6.452;2022-10-03T03:51:49;102337.44;;;8.81;100.00
54262;BME280;40174;52.364;6.452;2022-10-03T03:57:44;102334.94;;;8.78;100.00
54262;BME280;40174;52.364;6.452;2022-10-03T04:00:13;102334.09;;;8.78;100.00
54262;BME280;40174;52.364;6.452;2022-10-03T04:02:51;102337.72;;;8.75;100.00
54262;BME280;40174;52.364;6.452;2022-10-03T04:05:32;102344.69;;;8.76;100.00
54262;BME280;40174;52.364;6.452;2022-10-03T04:08:15;102339.59;;;8.73;100.00
54262;BME280;40174;52.364;6.452;2022-10-03T04:10:56;102342.28;;;8.71;100.00
54262;BME280;40174;52.364;6.452;2022-10-03T04:13:39;102343.91;;;8.74;100.00
54262;BME280;40174;52.364;6.452;2022-10-03T04:16:22;102337.00;;;8.71;100.00
54262;BME280;40174;52.364;6.452;2022-10-03T04:19:12;102340.50;;;8.72;100.00
54262;BME280;40174;52.364;6.452;2022-10-03T04:21:51;102338.75;;;8.72;100.00
54262;BME280;40174;52.364;6.452;2022-10-03T04:24:44;102335.44;;;8.67;100.00
54262;BME280;40174;52.364;6.452;2022-10-03T04:27:43;102338.19;;;8.66;100.00
54262;BME280;40174;52.364;6.452;2022-10-03T04:30:17;102339.94;;;8.65;100.00
54262;BME280;40174;52.364;6.452;2022-10-03T04:33:05;102347.84;;;8.65;100.00
54262;BME280;40174;52.364;6.452;2022-10-03T04:35:50;102344.38;;;8.65;100.00
54262;BME280;40174;52.364;6.452;2022-10-03T04:38:28;102346.09;;;8.66;100.00
54262;BME280;40174;52.364;6.452;2022-10-03T04:41:07;102350.41;;;8.67;100.00
54262;BME280;40174;52.364;6.452;2022-10-03T04:43:41;102341.81;;;8.63;100.00
54262;BME280;40174;52.364;6.452;2022-10-03T04:46:22;102348.84;;;8.63;100.00
54262;BME280;40174;52.364;6.452;2022-10-03T04:48:57;102346.22;;;8.63;100.00
54262;BME280;40174;52.364;6.452;2022-10-03T04:51:38;102352.50;;;8.60;100.00
54262;BME280;40174;52.364;6.452;2022-10-03T04:54:17;102355.19;;;8.59;100.00
54262;BME280;40174;52.364;6.452;2022-10-03T04:56:52;102352.56;;;8.59;100.00
54262;BME280;40174;52.364;6.452;2022-10-03T05:02:24;102344.75;;;8.57;100.00
54262;BME280;40174;52.364;6.452;2022-10-03T05:05:06;102346.44;;;8.58;100.00
54262;BME280;40174;52.364;6.452;2022-10-03T05:07:37;102354.28;;;8.60;100.00
54262;BME280;40174;52.364;6.452;2022-10-03T05:10:39;102350.72;;;8.61;100.00
54262;BME280;40174;52.364;6.452;2022-10-03T05:13:13;102347.28;;;8.59;100.00
54262;BME280;40174;52.364;6.452;2022-10-03T05:15:49;102352.56;;;8.59;100.00
54262;BME280;40174;52.364;6.452;2022-10-03T05:18:24;102352.66;;;8.57;100.00
54262;BME280;40174;52.364;6.452;2022-10-03T05:20:57;102350.09;;;8.56;100.00
54262;BME280;40174;52.364;6.452;2022-10-03T05:23:40;102355.41;;;8.54;100.00
54262;BME280;40174;52.364;6.452;2022-10-03T05:26:17;102362.47;;;8.53;100.00
54262;BME280;40174;52.364;6.452;2022-10-03T05:28:50;102373.00;;;8.53;100.00
54262;BME280;40174;52.364;6.452;2022-10-03T05:31:27;102370.59;;;8.49;100.00
54262;BME280;40174;52.364;6.452;2022-10-03T05:34:02;102375.75;;;8.52;100.00
54262;BME280;40174;52.364;6.452;2022-10-03T05:36:44;102374.81;;;8.53;100.00
54262;BME280;40174;52.364;6.452;2022-10-03T05:39:28;102382.78;;;8.51;100.00
54262;BME280;40174;52.364;6.452;2022-10-03T05:42:11;102381.00;;;8.52;100.00
54262;BME280;40174;52.364;6.452;2022-10-03T05:44:42;102391.56;;;8.52;100.00
54262;BME280;40174;52.364;6.452;2022-10-03T05:47:12;102388.91;;;8.52;100.00
54262;BME280;40174;52.364;6.452;2022-10-03T05:50:28;102383.72;;;8.50;100.00
54262;BME280;40174;52.364;6.452;2022-10-03T05:53:10;102389.03;;;8.49;100.00
54262;BME280;40174;52.364;6.452;2022-10-03T05:55:52;102395.16;;;8.49;100.00
54262;BME280;40174;52.364;6.452;2022-10-03T05:58:32;102397.72;;;8.51;100.00
54262;BME280;40174;52.364;6.452;2022-10-03T06:01:16;102392.47;;;8.51;100.00
54262;BME280;40174;52.364;6.452;2022-10-03T06:04:04;102396.81;;;8.52;100.00
54262;BME280;40174;52.364;6.452;2022-10-03T06:06:50;102401.16;;;8.53;100.00
54262;BME280;40174;52.364;6.452;2022-10-03T06:09:41;102393.19;;;8.55;100.00
54262;BME280;40174;52.364;6.452;2022-10-03T06:12:16;102408.06;;;8.56;100.00
54262;BME280;40174;52.364;6.452;2022-10-03T06:15:04;102390.47;;;8.56;100.00
54262;BME280;40174;52.364;6.452;2022-10-03T06:17:54;102394.88;;;8.56;100.00
54262;BME280;40174;52.364;6.452;2022-10-03T06:21:01;102390.47;;;8.56;100.00
54262;BME280;40174;52.364;6.452;2022-10-03T06:27:05;102393.81;;;8.60;100.00
54262;BME280;40174;52.364;6.452;2022-10-03T06:29:54;102400.78;;;8.61;100.00
54262;BME280;40174;52.364;6.452;2022-10-03T06:42:09;102414.41;;;8.70;100.00
54262;BME280;40174;52.364;6.452;2022-10-03T06:44:56;102421.38;;;8.71;100.00
54262;BME280;40174;52.364;6.452;2022-10-03T06:47:40;102418.63;;;8.74;100.00
54262;BME280;40174;52.364;6.452;2022-10-03T06:50:26;102419.31;;;8.78;100.00
54262;BME280;40174;52.364;6.452;2022-10-03T06:53:14;102421.88;;;8.80;100.00
54262;BME280;40174;52.364;6.452;2022-10-03T06:56:17;102427.09;;;8.81;100.00
54262;BME280;40174;52.364;6.452;2022-10-03T06:59:43;102414.53;;;8.86;100.00
54262;BME280;40174;52.364;6.452;2022-10-03T07:02:33;102424.06;;;8.89;100.00
54262;BME280;40174;52.364;6.452;2022-10-03T07:08:30;102414.81;;;8.99;100.00
54262;BME280;40174;52.364;6.452;2022-10-03T07:11:20;102425.03;;;9.05;100.00
54262;BME280;40174;52.364;6.452;2022-10-03T07:14:11;102418.75;;;9.08;100.00
54262;BME280;40174;52.364;6.452;2022-10-03T07:17:02;102426.44;;;9.12;100.00
54262;BME280;40174;52.364;6.452;2022-10-03T07:23:05;102434.16;;;9.17;100.00
54262;BME280;40174;52.364;6.452;2022-10-03T07:29:14;102446.00;;;9.26;100.00
54262;BME280;40174;52.364;6.452;2022-10-03T07:32:01;102445.03;;;9.28;100.00
54262;BME280;40174;52.364;6.452;2022-10-03T07:37:37;102450.41;;;9.44;100.00
54262;BME280;40174;52.364;6.452;2022-10-03T07:40:56;102451.94;;;9.48;100.00
54262;BME280;40174;52.364;6.452;2022-10-03T07:43:57;102461.06;;;9.60;100.00
54262;BME280;40174;52.364;6.452;2022-10-03T07:46:58;102465.16;;;9.66;100.00
54262;BME280;40174;52.364;6.452;2022-10-03T07:49:47;102471.69;;;9.76;100.00
54262;BME280;40174;52.364;6.452;2022-10-03T07:52:48;102485.34;;;9.84;100.00
54262;BME280;40174;52.364;6.452;2022-10-03T07:55:26;102483.34;;;9.89;100.00
54262;BME280;40174;52.364;6.452;2022-10-03T08:01:16;102490.72;;;10.00;100.00
54262;BME280;40174;52.364;6.452;2022-10-03T08:04:06;102486.81;;;10.07;100.00
54262;BME280;40174;52.364;6.452;2022-10-03T08:06:40;102482.22;;;10.11;100.00
54262;BME280;40174;52.364;6.452;2022-10-03T08:09:34;102488.22;;;10.32;100.00
54262;BME280;40174;52.364;6.452;2022-10-03T08:15:22;102488.25;;;10.48;100.00
54262;BME280;40174;52.364;6.452;2022-10-03T08:18:31;102491.75;;;10.64;100.00
54262;BME280;40174;52.364;6.452;2022-10-03T08:21:02;102501.06;;;10.71;100.00
54262;BME280;40174;52.364;6.452;2022-10-03T08:26:55;102499.66;;;10.97;100.00
54262;BME280;40174;52.364;6.452;2022-10-03T08:29:47;102494.94;;;11.18;100.00
54262;BME280;40174;52.364;6.452;2022-10-03T08:32:41;102498.59;;;11.16;100.00
54262;BME280;40174;52.364;6.452;2022-10-03T08:35:33;102500.31;;;11.33;100.00
54262;BME280;40174;52.364;6.452;2022-10-03T08:41:17;102504.59;;;11.65;100.00
54262;BME280;40174;52.364;6.452;2022-10-03T08:44:26;102506.81;;;11.73;100.00
54262;BME280;40174;52.364;6.452;2022-10-03T08:47:11;102514.03;;;11.85;100.00
54262;BME280;40174;52.364;6.452;2022-10-03T08:53:08;102513.06;;;12.17;100.00
54262;BME280;40174;52.364;6.452;2022-10-03T08:55:55;102502.38;;;12.33;100.00
54262;BME280;40174;52.364;6.452;2022-10-03T08:58:53;102504.66;;;12.53;100.00
54262;BME280;40174;52.364;6.452;2022-10-03T09:01:34;102498.69;;;12.64;100.00
54262;BME280;40174;52.364;6.452;2022-10-03T09:07:17;102501.03;;;12.97;100.00
54262;BME280;40174;52.364;6.452;2022-10-03T09:10:22;102510.66;;;13.13;100.00
54262;BME280;40174;52.364;6.452;2022-10-03T09:18:57;102510.44;;;13.57;100.00
54262;BME280;40174;52.364;6.452;2022-10-03T09:21:52;102503.66;;;13.66;100.00
54262;BME280;40174;52.364;6.452;2022-10-03T09:27:42;102507.00;;;13.95;100.00
54262;BME280;40174;52.364;6.452;2022-10-03T09:30:20;102504.47;;;14.06;100.00
54262;BME280;40174;52.364;6.452;2022-10-03T09:36:08;102497.22;;;14.34;100.00
54262;BME280;40174;52.364;6.452;2022-10-03T09:42:08;102508.19;;;14.68;100.00
54262;BME280;40174;52.364;6.452;2022-10-03T09:44:55;102506.34;;;14.81;100.00
54262;BME280;40174;52.364;6.452;2022-10-03T09:50:50;102497.09;;;15.11;100.00
54262;BME280;40174;52.364;6.452;2022-10-03T09:53:38;102493.16;;;15.16;100.00
54262;BME280;40174;52.364;6.452;2022-10-03T09:56:29;102492.56;;;15.24;100.00
54262;BME280;40174;52.364;6.452;2022-10-03T09:59:13;102490.53;;;15.28;100.00
54262;BME280;40174;52.364;6.452;2022-10-03T10:01:50;102497.69;;;15.27;100.00
54262;BME280;40174;52.364;6.452;2022-10-03T10:04:41;102488.63;;;15.30;100.00
54262;BME280;40174;52.364;6.452;2022-10-03T10:07:39;102499.94;;;15.45;100.00
54262;BME280;40174;52.364;6.452;2022-10-03T10:10:43;102495.84;;;15.52;100.00
54262;BME280;40174;52.364;6.452;2022-10-03T10:13:30;102494.31;;;15.61;100.00
54262;BME280;40174;52.364;6.452;2022-10-03T10:16:15;102491.81;;;15.70;100.00
54262;BME280;40174;52.364;6.452;2022-10-03T10:22:02;102480.22;;;15.83;100.00
54262;BME280;40174;52.364;6.452;2022-10-03T10:25:04;102477.81;;;15.79;100.00
54262;BME280;40174;52.364;6.452;2022-10-03T10:28:07;102477.94;;;15.89;100.00
54262;BME280;40174;52.364;6.452;2022-10-03T10:30:55;102480.41;;;16.04;100.00
54262;BME280;40174;52.364;6.452;2022-10-03T10:40:35;102484.03;;;16.03;100.00
54262;BME280;40174;52.364;6.452;2022-10-03T10:43:36;102471.28;;;15.95;100.00
54262;BME280;40174;52.364;6.452;2022-10-03T10:46:39;102474.31;;;15.90;100.00
54262;BME280;40174;52.364;6.452;2022-10-03T10:49:34;102476.91;;;16.03;100.00
54262;BME280;40174;52.364;6.452;2022-10-03T10:52:40;102468.91;;;16.14;100.00
54262;BME280;40174;52.364;6.452;2022-10-03T10:55:54;102470.72;;;16.25;100.00
54262;BME280;40174;52.364;6.452;2022-10-03T10:59:11;102481.38;;;16.36;100.00
54262;BME280;40174;52.364;6.452;2022-10-03T11:02:18;102471.94;;;16.55;100.00
54262;BME280;40174;52.364;6.452;2022-10-03T11:08:22;102480.91;;;16.54;100.00
54262;BME280;40174;52.364;6.452;2022-10-03T11:11:19;102473.84;;;16.75;100.00
54262;BME280;40174;52.364;6.452;2022-10-03T11:14:39;102473.13;;;16.96;99.96
54262;BME280;40174;52.364;6.452;2022-10-03T11:17:30;102466.78;;;16.97;100.00
54262;BME280;40174;52.364;6.452;2022-10-03T11:20:46;102470.72;;;16.93;99.66
54262;BME280;40174;52.364;6.452;2022-10-03T11:23:40;102471.97;;;17.10;100.00
54262;BME280;40174;52.364;6.452;2022-10-03T11:26:42;102477.25;;;17.00;96.42
54262;BME280;40174;52.364;6.452;2022-10-03T11:35:48;102466.06;;;16.95;98.61
54262;BME280;40174;52.364;6.452;2022-10-03T11:38:24;102469.03;;;17.13;97.52
54262;BME280;40174;52.364;6.452;2022-10-03T11:41:00;102467.41;;;17.33;96.84
54262;BME280;40174;52.364;6.452;2022-10-03T11:43:51;102476.03;;;17.36;92.80
54262;BME280;40174;52.364;6.452;2022-10-03T11:46:29;102464.22;;;17.39;93.97
54262;BME280;40174;52.364;6.452;2022-10-03T11:49:06;102468.28;;;17.33;91.93
54262;BME280;40174;52.364;6.452;2022-10-03T11:51:46;102464.44;;;17.47;92.00
54262;BME280;40174;52.364;6.452;2022-10-03T11:54:21;102467.63;;;17.62;89.37
54262;BME280;40174;52.364;6.452;2022-10-03T11:56:59;102466.44;;;17.87;91.46
54262;BME280;40174;52.364;6.452;2022-10-03T11:59:36;102460.78;;;18.11;90.27
54262;BME280;40174;52.364;6.452;2022-10-03T12:02:13;102461.59;;;18.33;90.43
54262;BME280;40174;52.364;6.452;2022-10-03T12:04:55;102455.72;;;18.39;89.28
54262;BME280;40174;52.364;6.452;2022-10-03T12:07:39;102460.91;;;18.40;89.86
54262;BME280;40174;52.364;6.452;2022-10-03T12:10:43;102465.72;;;18.16;88.92
54262;BME280;40174;52.364;6.452;2022-10-03T12:13:14;102460.81;;;17.90;89.11
54262;BME280;40174;52.364;6.452;2022-10-03T12:15:45;102462.47;;;17.70;88.05
54262;BME280;40174;52.364;6.452;2022-10-03T12:18:15;102457.72;;;17.53;89.57
54262;BME280;40174;52.364;6.452;2022-10-03T12:21:08;102463.09;;;17.41;89.20
54262;BME280;40174;52.364;6.452;2022-10-03T12:23:54;102456.47;;;17.36;90.45
54262;BME280;40174;52.364;6.452;2022-10-03T12:26:24;102456.47;;;17.36;91.47
54262;BME280;40174;52.364;6.452;2022-10-03T12:28:55;102454.63;;;17.36;91.46
54262;BME280;40174;52.364;6.452;2022-10-03T12:31:25;102441.66;;;17.32;90.79
54262;BME280;40174;52.364;6.452;2022-10-03T12:33:58;102445.41;;;17.40;95.07
54262;BME280;40174;52.364;6.452;2022-10-03T12:36:43;102453.66;;;17.37;92.54
54262;BME280;40174;52.364;6.452;2022-10-03T12:39:24;102451.63;;;17.30;91.71
54262;BME280;40174;52.364;6.452;2022-10-03T12:42:06;102449.22;;;17.27;92.59
54262;BME280;40174;52.364;6.452;2022-10-03T12:44:47;102440.44;;;17.36;91.43
54262;BME280;40174;52.364;6.452;2022-10-03T12:47:38;102446.88;;;17.75;90.45
54262;BME280;40174;52.364;6.452;2022-10-03T12:50:21;102446.31;;;17.72;84.52
54262;BME280;40174;52.364;6.452;2022-10-03T12:53:09;102453.97;;;17.44;83.97
54262;BME280;40174;52.364;6.452;2022-10-03T12:55:58;102448.34;;;17.26;85.46
54262;BME280;40174;52.364;6.452;2022-10-03T12:58:32;102445.25;;;17.10;86.37
54262;BME280;40174;52.364;6.452;2022-10-03T13:01:03;102449.91;;;16.96;88.61
54262;BME280;40174;52.364;6.452;2022-10-03T13:03:38;102448.25;;;16.84;87.35
54262;BME280;40174;52.364;6.452;2022-10-03T13:06:33;102449.56;;;16.78;90.06
54262;BME280;40174;52.364;6.452;2022-10-03T13:09:15;102440.47;;;16.70;89.80
54262;BME280;40174;52.364;6.452;2022-10-03T13:12:01;102435.13;;;16.70;91.47
54262;BME280;40174;52.364;6.452;2022-10-03T13:17:32;102427.00;;;16.94;92.44
54262;BME280;40174;52.364;6.452;2022-10-03T13:20:08;102433.94;;;17.17;91.50
54262;BME280;40174;52.364;6.452;2022-10-03T13:22:42;102437.50;;;17.39;89.48
54262;BME280;40174;52.364;6.452;2022-10-03T13:25:17;102431.81;;;17.53;88.27
54262;BME280;40174;52.364;6.452;2022-10-03T13:27:51;102428.91;;;17.56;87.24
54262;BME280;40174;52.364;6.452;2022-10-03T13:30:26;102429.47;;;17.60;87.32
54262;BME280;40174;52.364;6.452;2022-10-03T13:32:58;102431.78;;;17.64;87.15
54262;BME280;40174;52.364;6.452;2022-10-03T13:35:32;102440.97;;;17.72;87.32
54262;BME280;40174;52.364;6.452;2022-10-03T13:38:43;102432.41;;;17.78;87.66
54262;BME280;40174;52.364;6.452;2022-10-03T13:41:25;102430.25;;;17.83;87.15
54262;BME280;40174;52.364;6.452;2022-10-03T13:43:58;102428.66;;;17.80;86.09
54262;BME280;40174;52.364;6.452;2022-10-03T13:46:33;102423.53;;;17.77;85.39
54262;BME280;40174;52.364;6.452;2022-10-03T13:49:10;102422.09;;;17.73;86.17
54262;BME280;40174;52.364;6.452;2022-10-03T13:51:49;102413.31;;;17.61;83.69
54262;BME280;40174;52.364;6.452;2022-10-03T13:54:24;102414.94;;;17.53;85.48
54262;BME280;40174;52.364;6.452;2022-10-03T13:57:10;102417.03;;;17.49;87.29
54262;BME280;40174;52.364;6.452;2022-10-03T13:59:56;102413.78;;;17.45;86.36
54262;BME280;40174;52.364;6.452;2022-10-03T14:02:40;102412.66;;;17.48;86.31
54262;BME280;40174;52.364;6.452;2022-10-03T14:05:35;102405.63;;;17.47;86.21
54262;BME280;40174;52.364;6.452;2022-10-03T14:08:12;102411.81;;;17.48;87.33
54262;BME280;40174;52.364;6.452;2022-10-03T14:11:02;102414.50;;;17.48;87.86
54262;BME280;40174;52.364;6.452;2022-10-03T14:13:43;102403.81;;;17.48;87.56
54262;BME280;40174;52.364;6.452;2022-10-03T14:16:24;102411.53;;;17.51;88.78
54262;BME280;40174;52.364;6.452;2022-10-03T14:18:57;102407.63;;;17.55;88.80
54262;BME280;40174;52.364;6.452;2022-10-03T14:21:47;102407.63;;;17.55;88.81
54262;BME280;40174;52.364;6.452;2022-10-03T14:24:26;102401.00;;;17.49;89.30
54262;BME280;40174;52.364;6.452;2022-10-03T14:27:01;102409.16;;;17.48;88.93
54262;BME280;40174;52.364;6.452;2022-10-03T14:29:37;102395.56;;;17.39;88.53
54262;BME280;40174;52.364;6.452;2022-10-03T14:32:17;102403.97;;;17.35;89.00
54262;BME280;40174;52.364;6.452;2022-10-03T14:34:52;102407.19;;;17.29;90.18
54262;BME280;40174;52.364;6.452;2022-10-03T14:37:25;102408.41;;;17.24;90.70
54262;BME280;40174;52.364;6.452;2022-10-03T14:40:13;102396.78;;;17.14;91.44
54262;BME280;40174;52.364;6.452;2022-10-03T14:43:03;102388.31;;;17.09;92.81
54262;BME280;40174;52.364;6.452;2022-10-03T14:45:38;102388.84;;;17.03;92.95
54262;BME280;40174;52.364;6.452;2022-10-03T14:48:15;102386.53;;;16.98;93.19
54262;BME280;40174;52.364;6.452;2022-10-03T14:50:44;102384.38;;;16.92;93.45
54262;BME280;40174;52.364;6.452;2022-10-03T14:53:17;102382.94;;;16.88;92.70
54262;BME280;40174;52.364;6.452;2022-10-03T14:55:55;102383.47;;;16.82;92.96
54262;BME280;40174;52.364;6.452;2022-10-03T14:58:25;102373.72;;;16.81;92.43
54262;BME280;40174;52.364;6.452;2022-10-03T15:01:03;102370.69;;;16.74;92.26
54262;BME280;40174;52.364;6.452;2022-10-03T15:03:35;102368.66;;;16.67;91.54
54262;BME280;40174;52.364;6.452;2022-10-03T15:06:30;102370.72;;;16.63;92.46
54262;BME280;40174;52.364;6.452;2022-10-03T15:09:00;102371.94;;;16.59;92.94
54262;BME280;40174;52.364;6.452;2022-10-03T15:11:29;102374.03;;;16.55;92.29
54262;BME280;40174;52.364;6.452;2022-10-03T15:14:00;102370.91;;;16.50;91.82
54262;BME280;40174;52.364;6.452;2022-10-03T15:16:32;102366.78;;;16.46;92.68
54262;BME280;40174;52.364;6.452;2022-10-03T15:19:08;102366.88;;;16.45;93.49
54262;BME280;40174;52.364;6.452;2022-10-03T15:21:36;102366.03;;;16.44;94.44
54262;BME280;40174;52.364;6.452;2022-10-03T15:24:07;102362.75;;;16.40;93.75
54262;BME280;40174;52.364;6.452;2022-10-03T15:26:37;102367.38;;;16.38;93.57
54262;BME280;40174;52.364;6.452;2022-10-03T15:29:06;102356.13;;;16.35;95.70
54262;BME280;40174;52.364;6.452;2022-10-03T15:31:39;102358.06;;;16.33;95.62
54262;BME280;40174;52.364;6.452;2022-10-03T15:34:15;102363.41;;;16.33;97.12
54262;BME280;40174;52.364;6.452;2022-10-03T15:36:46;102356.50;;;16.30;99.09
54262;BME280;40174;52.364;6.452;2022-10-03T15:39:18;102361.22;;;16.27;98.78
54262;BME280;40174;52.364;6.452;2022-10-03T15:41:51;102357.81;;;16.25;98.40
54262;BME280;40174;52.364;6.452;2022-10-03T15:44:26;102364.38;;;16.20;98.81
54262;BME280;40174;52.364;6.452;2022-10-03T15:46:59;102355.78;;;16.17;100.00
54262;BME280;40174;52.364;6.452;2022-10-03T15:49:35;102353.34;;;16.14;100.00
54262;BME280;40174;52.364;6.452;2022-10-03T15:52:13;102350.47;;;16.06;100.00
54262;BME280;40174;52.364;6.452;2022-10-03T15:54:44;102358.69;;;16.03;100.00
54262;BME280;40174;52.364;6.452;2022-10-03T15:57:17;102351.88;;;15.98;100.00
54262;BME280;40174;52.364;6.452;2022-10-03T15:59:49;102354.69;;;15.97;100.00
54262;BME280;40174;52.364;6.452;2022-10-03T16:02:18;102352.25;;;15.94;100.00